createdAt,value
2022-12-04T00:01:55.820Z,68.20
2022-12-04T00:04:24.569Z,75.07
2022-12-04T00:06:58.960Z,72.63
2022-12-04T00:09:27.798Z,65.73
2022-12-04T00:11:55.982Z,67.27
2022-12-04T00:14:24.223Z,66.13
2022-12-04T00:16:52.431Z,67.93
2022-12-04T00:19:20.873Z,66.40
2022-12-04T00:21:50.764Z,66.07
2022-12-04T00:24:20.421Z,59.13
2022-12-04T00:26:48.476Z,70.00
2022-12-04T00:29:16.885Z,62.80
2022-12-04T00:31:44.943Z,66.87
2022-12-04T00:34:13.259Z,66.37
2022-12-04T00:36:41.512Z,68.13
2022-12-04T00:39:09.979Z,62.73
2022-12-04T00:41:39.472Z,61.07
2022-12-04T00:44:07.814Z,67.20
2022-12-04T00:46:35.801Z,59.67
2022-12-04T00:49:04.131Z,68.17
2022-12-04T00:51:32.177Z,61.53
2022-12-04T00:54:00.770Z,61.93
2022-12-04T00:56:30.375Z,64.30
2022-12-04T00:59:02.164Z,66.63
2022-12-04T01:01:31.158Z,68.83
2022-12-04T01:03:59.585Z,65.70
2022-12-04T01:06:29.673Z,58.33
2022-12-04T01:08:59.058Z,62.50
2022-12-04T01:11:28.081Z,73.53
2022-12-04T01:13:57.322Z,60.53
2022-12-04T01:16:28.670Z,58.20
2022-12-04T01:18:57.107Z,66.93
2022-12-04T01:21:25.174Z,55.73
2022-12-04T01:23:53.524Z,63.83
2022-12-04T01:26:21.646Z,76.37
2022-12-04T01:28:50.125Z,65.53
2022-12-04T01:31:20.067Z,56.70
2022-12-04T01:33:50.268Z,65.70
2022-12-04T01:36:19.852Z,62.23
2022-12-04T01:38:48.279Z,60.80
2022-12-04T01:41:19.574Z,66.23
2022-12-04T01:44:14.205Z,56.93
2022-12-04T01:46:43.218Z,65.67
2022-12-04T01:49:16.459Z,67.87
2022-12-04T01:51:49.212Z,62.13
2022-12-04T01:54:23.344Z,65.47
2022-12-04T01:56:55.391Z,64.13
2022-12-04T01:59:29.936Z,69.17
2022-12-04T02:02:01.885Z,63.13
2022-12-04T02:04:34.317Z,63.77
2022-12-04T02:07:02.332Z,66.77
2022-12-04T02:09:31.539Z,63.93
2022-12-04T02:12:08.338Z,65.70
2022-12-04T02:14:45.410Z,70.47
2022-12-04T02:17:21.098Z,68.27
2022-12-04T02:20:12.939Z,70.70
2022-12-04T02:23:10.705Z,65.57
2022-12-04T02:25:45.904Z,69.40
2022-12-04T02:28:22.901Z,57.27
2022-12-04T02:30:53.813Z,62.70
2022-12-04T02:33:26.502Z,56.20
2022-12-04T02:36:01.851Z,67.20
2022-12-04T02:38:36.617Z,65.97
2022-12-04T02:41:11.885Z,63.83
2022-12-04T02:43:44.858Z,63.90
2022-12-04T02:46:18.217Z,64.73
2022-12-04T02:48:51.417Z,68.87
2022-12-04T02:51:22.700Z,65.17
2022-12-04T02:53:53.866Z,71.50
2022-12-04T02:56:26.309Z,68.10
2022-12-04T02:58:58.116Z,61.47
2022-12-04T03:01:30.537Z,60.90
2022-12-04T03:04:02.953Z,64.97
2022-12-04T03:06:35.263Z,59.97
2022-12-04T03:09:08.941Z,57.53
2022-12-04T03:11:39.764Z,57.77
2022-12-04T03:14:14.735Z,66.30
2022-12-04T03:16:44.151Z,70.63
2022-12-04T03:19:15.624Z,67.17
2022-12-04T03:21:50.085Z,61.83
2022-12-04T03:24:23.655Z,67.23
2022-12-04T03:26:57.084Z,57.87
2022-12-04T03:29:32.028Z,60.63
2022-12-04T03:32:08.120Z,66.63
2022-12-04T03:34:56.508Z,64.87
2022-12-04T03:37:32.812Z,66.40
2022-12-04T03:40:07.156Z,54.00
2022-12-04T03:42:42.040Z,69.73
2022-12-04T03:45:18.758Z,62.43
2022-12-04T03:47:53.948Z,68.30
2022-12-04T03:50:31.123Z,55.47
2022-12-04T03:53:04.724Z,56.97
2022-12-04T03:55:40.183Z,64.47
2022-12-04T03:58:15.105Z,63.40
2022-12-04T04:00:46.054Z,58.27
2022-12-04T04:03:18.695Z,57.37
2022-12-04T04:05:50.060Z,60.57
2022-12-04T04:08:27.295Z,60.80
2022-12-04T04:11:00.420Z,56.53
2022-12-04T04:13:52.066Z,61.73
2022-12-04T04:16:43.346Z,65.53
2022-12-04T04:19:32.597Z,66.83
2022-12-04T04:22:21.594Z,61.17
2022-12-04T04:24:55.659Z,60.80
2022-12-04T04:27:23.996Z,63.33
2022-12-04T04:29:53.303Z,65.10
2022-12-04T04:32:32.078Z,62.20
2022-12-04T04:35:06.786Z,61.37
2022-12-04T04:37:40.317Z,63.20
2022-12-04T04:40:14.885Z,60.70
2022-12-04T04:42:50.340Z,68.27
2022-12-04T04:45:22.564Z,65.07
2022-12-04T04:47:55.484Z,67.40
2022-12-04T04:50:24.679Z,60.47
2022-12-04T04:52:59.885Z,62.93
2022-12-04T04:55:29.205Z,69.00
2022-12-04T04:58:07.972Z,63.87
2022-12-04T05:00:36.910Z,61.60
2022-12-04T05:03:06.562Z,60.90
2022-12-04T05:05:35.079Z,62.60
2022-12-04T05:08:03.183Z,65.53
2022-12-04T05:10:31.496Z,71.43
2022-12-04T05:12:59.494Z,65.63
2022-12-04T05:15:27.854Z,71.43
2022-12-04T05:17:55.833Z,65.60
2022-12-04T05:20:25.477Z,76.07
2022-12-04T05:22:53.503Z,65.13
2022-12-04T05:25:21.776Z,63.67
2022-12-04T05:27:49.833Z,65.60
2022-12-04T05:30:18.350Z,62.40
2022-12-04T05:32:46.615Z,70.80
2022-12-04T05:35:15.027Z,66.43
2022-12-04T05:37:45.567Z,74.77
2022-12-04T05:40:14.216Z,66.27
2022-12-04T05:42:42.198Z,58.97
2022-12-04T05:45:11.089Z,75.43
2022-12-04T05:47:40.170Z,63.13
2022-12-04T05:50:10.036Z,68.03
2022-12-04T05:52:38.163Z,62.93
2022-12-04T05:55:08.566Z,54.87
2022-12-04T05:57:36.710Z,64.03
2022-12-04T06:00:06.370Z,63.03
2022-12-04T06:02:39.527Z,67.70
2022-12-04T06:05:08.605Z,64.07
2022-12-04T06:07:36.810Z,68.13
2022-12-04T06:10:07.936Z,62.30
2022-12-04T06:12:35.998Z,64.90
2022-12-04T06:15:05.167Z,58.70
2022-12-04T06:17:33.165Z,57.77
2022-12-04T06:20:05.319Z,63.60
2022-12-04T06:22:36.248Z,64.00
2022-12-04T06:25:05.202Z,54.43
2022-12-04T06:27:34.525Z,52.80
2022-12-04T06:30:03.653Z,58.77
2022-12-04T06:32:31.642Z,53.80
2022-12-04T06:35:00.032Z,63.77
2022-12-04T06:37:28.350Z,55.63
2022-12-04T06:39:57.080Z,60.97
2022-12-04T06:42:25.329Z,67.83
2022-12-04T06:44:55.442Z,62.00
2022-12-04T06:47:23.641Z,64.97
2022-12-04T06:49:52.287Z,65.33
2022-12-04T06:52:20.422Z,55.47
2022-12-04T06:54:49.002Z,60.53
2022-12-04T06:57:17.065Z,53.90
2022-12-04T06:59:45.571Z,61.30
2022-12-04T07:02:15.052Z,47.63
2022-12-04T07:04:43.479Z,56.80
2022-12-04T07:07:11.561Z,54.77
2022-12-04T07:09:39.981Z,53.67
2022-12-04T07:12:08.308Z,56.03
2022-12-04T07:14:36.594Z,64.73
2022-12-04T07:17:04.675Z,59.37
2022-12-04T07:19:34.324Z,56.17
2022-12-04T07:22:02.360Z,59.80
2022-12-04T07:24:30.671Z,54.30
2022-12-04T07:26:58.643Z,62.97
2022-12-04T07:29:26.949Z,59.30
2022-12-04T07:31:55.083Z,56.60
2022-12-04T07:34:23.495Z,52.60
2022-12-04T07:36:52.848Z,55.93
2022-12-04T07:39:21.104Z,51.57
2022-12-04T07:41:49.130Z,48.37
2022-12-04T07:44:17.401Z,52.57
2022-12-04T07:46:45.492Z,62.07
2022-12-04T07:49:13.944Z,53.17
2022-12-04T07:51:41.942Z,56.30
2022-12-04T07:54:11.561Z,58.30
2022-12-04T07:56:39.572Z,60.30
2022-12-04T07:59:07.941Z,55.57
2022-12-04T08:01:36.143Z,56.77
2022-12-04T08:04:04.650Z,49.17
2022-12-04T08:06:34.964Z,64.53
2022-12-04T08:09:07.931Z,59.03
2022-12-04T08:11:39.755Z,50.40
2022-12-04T08:14:09.558Z,52.63
2022-12-04T08:16:37.726Z,60.87
2022-12-04T08:19:06.254Z,59.90
2022-12-04T08:21:34.619Z,56.40
2022-12-04T08:24:03.849Z,63.67
2022-12-04T08:26:33.567Z,61.53
2022-12-04T08:29:04.386Z,53.47
2022-12-04T08:31:34.675Z,61.10
2022-12-04T08:34:05.411Z,53.90
2022-12-04T08:36:35.190Z,58.10
2022-12-04T08:39:04.641Z,59.53
2022-12-04T08:41:34.682Z,52.10
2022-12-04T08:44:04.762Z,47.93
2022-12-04T08:46:33.355Z,55.10
2022-12-04T08:49:02.080Z,52.70
2022-12-04T08:51:32.284Z,54.97
2022-12-04T08:54:03.641Z,51.80
2022-12-04T08:56:33.656Z,54.20
2022-12-04T08:59:04.122Z,48.30
2022-12-04T09:01:33.151Z,45.17
2022-12-04T09:04:01.843Z,56.07
2022-12-04T09:06:30.086Z,53.37
2022-12-04T09:08:58.758Z,54.33
2022-12-04T09:11:29.246Z,53.17
2022-12-04T09:13:57.769Z,41.70
2022-12-04T09:16:27.735Z,45.77
2022-12-04T09:18:57.929Z,44.67
2022-12-04T09:21:26.679Z,43.93
2022-12-04T09:23:55.632Z,42.50
2022-12-04T09:26:26.314Z,41.50
2022-12-04T09:28:56.389Z,47.17
2022-12-04T09:31:25.256Z,47.67
2022-12-04T09:33:55.743Z,49.30
2022-12-04T09:36:24.447Z,47.50
2022-12-04T09:38:54.764Z,40.43
2022-12-04T09:41:51.405Z,48.20
2022-12-04T09:44:24.648Z,40.90
2022-12-04T09:46:56.288Z,47.90
2022-12-04T09:49:30.389Z,48.13
2022-12-04T09:52:03.285Z,47.57
2022-12-04T09:54:39.140Z,50.27
2022-12-04T09:57:16.301Z,45.30
2022-12-04T09:59:45.925Z,49.20
2022-12-04T10:02:29.653Z,50.43
2022-12-04T10:05:00.093Z,43.07
2022-12-04T10:07:34.693Z,51.57
2022-12-04T10:10:09.142Z,43.87
2022-12-04T10:12:48.508Z,38.90
2022-12-04T10:15:30.604Z,45.93
2022-12-04T10:18:12.874Z,45.77
2022-12-04T10:21:02.679Z,55.07
2022-12-04T10:23:41.799Z,58.37
2022-12-04T10:26:15.930Z,45.53
2022-12-04T10:28:54.873Z,46.77
2022-12-04T10:31:25.568Z,59.40
2022-12-04T10:33:57.115Z,54.43
2022-12-04T10:36:31.545Z,50.47
2022-12-04T10:39:03.523Z,43.70
2022-12-04T10:41:41.670Z,56.30
2022-12-04T10:44:15.317Z,46.50
2022-12-04T10:46:46.181Z,46.60
2022-12-04T10:49:19.017Z,56.90
2022-12-04T10:51:49.708Z,46.37
2022-12-04T10:54:22.354Z,47.27
2022-12-04T10:56:55.965Z,51.03
2022-12-04T10:59:24.697Z,44.83
2022-12-04T11:02:04.813Z,47.17
2022-12-04T11:04:36.375Z,49.17
2022-12-04T11:07:08.698Z,51.73
2022-12-04T11:09:36.908Z,48.93
2022-12-04T11:12:17.257Z,45.20
2022-12-04T11:14:47.357Z,59.43
2022-12-04T11:17:19.032Z,57.33
2022-12-04T11:19:47.510Z,45.57
2022-12-04T11:22:20.283Z,54.23
2022-12-04T11:24:53.859Z,58.90
2022-12-04T11:27:27.120Z,61.57
2022-12-04T11:29:56.706Z,49.77
2022-12-04T11:32:27.258Z,54.57
2022-12-04T11:34:58.910Z,49.40
2022-12-04T11:37:31.440Z,55.20
2022-12-04T11:39:59.794Z,54.00
2022-12-04T11:42:30.185Z,59.27
2022-12-04T11:44:59.632Z,58.80
2022-12-04T11:47:30.276Z,61.23
2022-12-04T11:50:11.463Z,64.53
2022-12-04T11:52:52.047Z,60.00
2022-12-04T11:55:29.039Z,64.33
2022-12-04T11:58:16.682Z,63.77
2022-12-04T12:00:52.042Z,65.93
2022-12-04T12:03:27.502Z,62.93
2022-12-04T12:06:12.359Z,47.13
2022-12-04T12:08:55.390Z,53.33
2022-12-04T12:11:30.636Z,46.20
2022-12-04T12:14:08.593Z,52.00
2022-12-04T12:16:48.500Z,51.20
2022-12-04T12:19:42.835Z,44.93
2022-12-04T12:22:21.718Z,49.30
2022-12-04T12:24:59.043Z,42.93
2022-12-04T12:27:51.297Z,34.00
2022-12-04T12:30:21.926Z,35.70
2022-12-04T12:33:01.907Z,34.63
2022-12-04T12:35:35.096Z,40.67
2022-12-04T12:38:07.722Z,41.03
2022-12-04T12:40:42.157Z,42.67
2022-12-04T12:43:16.886Z,43.97
2022-12-04T12:45:52.009Z,43.13
2022-12-04T12:48:28.698Z,42.27
2022-12-04T12:51:28.441Z,41.80
2022-12-04T12:53:53.588Z,54.53
2022-12-04T12:56:32.125Z,37.00
2022-12-04T12:59:04.072Z,38.93
2022-12-04T13:01:40.818Z,49.13
2022-12-04T13:04:14.332Z,41.07
2022-12-04T13:06:49.636Z,43.27
2022-12-04T13:09:25.382Z,38.93
2022-12-04T13:12:00.227Z,41.40
2022-12-04T13:14:28.628Z,40.13
2022-12-04T13:17:01.633Z,43.93
2022-12-04T13:19:33.542Z,42.03
2022-12-04T13:22:14.797Z,41.17
2022-12-04T13:25:04.062Z,41.97
2022-12-04T13:27:46.263Z,48.43
2022-12-04T13:30:19.809Z,51.23
2022-12-04T13:33:18.654Z,45.70
2022-12-04T13:36:20.045Z,48.43
2022-12-04T13:39:03.210Z,53.50
2022-12-04T13:41:34.650Z,51.80
2022-12-04T13:44:14.225Z,42.80
2022-12-04T13:46:56.900Z,49.00
2022-12-04T13:49:28.286Z,46.33
2022-12-04T13:51:58.277Z,51.30
2022-12-04T13:54:34.967Z,49.73
2022-12-04T13:57:20.941Z,45.33
2022-12-04T14:00:01.740Z,50.30
2022-12-04T14:02:49.301Z,46.87
2022-12-04T14:05:26.634Z,47.70
2022-12-04T14:08:07.097Z,47.63
2022-12-04T14:10:38.788Z,43.93
2022-12-04T14:13:17.717Z,47.37
2022-12-04T14:15:47.726Z,48.07
2022-12-04T14:18:25.173Z,44.80
2022-12-04T14:21:01.181Z,44.93
2022-12-04T14:23:36.488Z,48.53
2022-12-04T14:26:05.899Z,52.87
2022-12-04T14:28:44.508Z,48.87
2022-12-04T14:31:33.408Z,43.23
2022-12-04T14:34:10.636Z,51.90
2022-12-04T14:36:44.451Z,54.57
2022-12-04T14:39:19.537Z,47.80
2022-12-04T14:41:48.162Z,52.47
2022-12-04T14:44:26.451Z,46.80
2022-12-04T14:46:59.569Z,62.17
2022-12-04T14:49:41.334Z,50.03
2022-12-04T14:52:17.606Z,47.30
2022-12-04T14:54:54.037Z,47.70
2022-12-04T14:57:38.421Z,43.13
2022-12-04T15:00:16.169Z,47.03
2022-12-04T15:02:48.952Z,47.63
2022-12-04T15:05:20.895Z,51.97
2022-12-04T15:07:51.517Z,49.13
2022-12-04T15:10:40.805Z,49.80
2022-12-04T15:13:09.100Z,47.60
2022-12-04T15:15:37.726Z,49.40
2022-12-04T15:18:13.865Z,54.57
2022-12-04T15:20:52.926Z,48.33
2022-12-04T15:23:25.837Z,39.30
2022-12-04T15:25:55.627Z,52.93
2022-12-04T15:28:29.933Z,51.00
2022-12-04T15:31:00.839Z,47.07
2022-12-04T15:33:34.220Z,51.93
2022-12-04T15:36:06.431Z,45.60
2022-12-04T15:38:35.592Z,49.37
2022-12-04T15:41:04.066Z,58.93
2022-12-04T15:43:34.048Z,54.73
2022-12-04T15:46:12.405Z,44.83
2022-12-04T15:48:47.574Z,49.60
2022-12-04T15:51:20.037Z,53.30
2022-12-04T15:53:49.005Z,46.90
2022-12-04T15:56:20.674Z,46.40
2022-12-04T15:58:55.980Z,48.00
2022-12-04T16:01:24.943Z,50.60
2022-12-04T16:03:56.854Z,44.73
2022-12-04T16:06:26.689Z,45.27
2022-12-04T16:08:56.765Z,44.67
2022-12-04T16:11:36.370Z,60.57
2022-12-04T16:14:17.561Z,53.77
2022-12-04T16:16:48.281Z,47.07
2022-12-04T16:19:25.147Z,46.67
2022-12-04T16:21:53.491Z,46.27
2022-12-04T16:24:22.612Z,44.53
2022-12-04T16:26:51.771Z,47.47
2022-12-04T16:29:20.104Z,44.60
2022-12-04T16:31:48.958Z,49.53
2022-12-04T16:34:18.873Z,47.10
2022-12-04T16:36:46.940Z,55.43
2022-12-04T16:39:15.305Z,46.67
2022-12-04T16:41:43.414Z,54.63
2022-12-04T16:44:15.698Z,55.47
2022-12-04T16:46:44.561Z,49.07
2022-12-04T16:49:13.588Z,52.63
2022-12-04T16:51:46.880Z,57.23
2022-12-04T16:54:15.280Z,50.30
2022-12-04T16:56:43.364Z,45.53
2022-12-04T16:59:12.359Z,56.60
2022-12-04T17:01:45.028Z,53.07
2022-12-04T17:04:13.903Z,50.23
2022-12-04T17:06:43.962Z,49.23
2022-12-04T17:09:13.644Z,46.67
2022-12-04T17:11:42.124Z,55.77
2022-12-04T17:14:11.048Z,43.33
2022-12-04T17:16:42.554Z,50.90
2022-12-04T17:19:12.101Z,48.63
2022-12-04T17:21:41.637Z,53.47
2022-12-04T17:24:11.424Z,57.37
2022-12-04T17:26:39.582Z,50.47
2022-12-04T17:29:07.943Z,52.30
2022-12-04T17:31:36.318Z,43.80
2022-12-04T17:34:04.674Z,54.20
2022-12-04T17:36:32.710Z,47.87
2022-12-04T17:39:02.417Z,49.53
2022-12-04T17:41:31.817Z,52.20
2022-12-04T17:44:00.933Z,49.23
2022-12-04T17:46:29.341Z,52.83
2022-12-04T17:49:01.442Z,51.93
2022-12-04T17:51:32.218Z,57.43
2022-12-04T17:54:00.517Z,59.63
2022-12-04T17:56:28.891Z,66.43
2022-12-04T17:58:59.080Z,66.93
2022-12-04T18:01:28.717Z,58.83
2022-12-04T18:03:59.076Z,50.97
2022-12-04T18:06:28.834Z,55.57
2022-12-04T18:08:57.803Z,51.07
2022-12-04T18:11:29.351Z,64.03
2022-12-04T18:14:00.973Z,53.73
2022-12-04T18:16:30.922Z,54.73
2022-12-04T18:19:01.126Z,48.10
2022-12-04T18:21:32.041Z,43.70
2022-12-04T18:24:02.728Z,54.73
2022-12-04T18:26:35.131Z,45.53
2022-12-04T18:29:05.357Z,47.27
2022-12-04T18:31:34.549Z,47.27
2022-12-04T18:34:03.116Z,42.70
2022-12-04T18:36:32.481Z,42.23
2022-12-04T18:39:04.019Z,44.73
2022-12-04T18:41:32.667Z,46.53
2022-12-04T18:44:02.414Z,49.23
2022-12-04T18:46:32.996Z,46.17
2022-12-04T18:49:01.794Z,41.87
2022-12-04T18:51:31.635Z,53.17
2022-12-04T18:54:01.966Z,48.97
2022-12-04T18:56:31.143Z,52.10
2022-12-04T18:59:00.744Z,44.33
2022-12-04T19:01:31.560Z,48.47
2022-12-04T19:04:01.196Z,47.17
2022-12-04T19:06:30.881Z,46.67
2022-12-04T19:09:01.225Z,50.33
2022-12-04T19:11:29.625Z,55.90
2022-12-04T19:13:59.813Z,48.57
2022-12-04T19:16:28.636Z,47.63
2022-12-04T19:19:01.120Z,50.73
2022-12-04T19:21:31.618Z,52.23
2022-12-04T19:24:01.418Z,54.47
2022-12-04T19:26:31.593Z,45.30
2022-12-04T19:29:02.907Z,50.33
2022-12-04T19:31:34.064Z,48.87
2022-12-04T19:34:04.347Z,63.30
2022-12-04T19:36:35.487Z,57.63
2022-12-04T19:39:05.223Z,49.67
2022-12-04T19:41:35.257Z,61.97
2022-12-04T19:44:20.030Z,60.10
2022-12-04T19:46:52.351Z,57.53
2022-12-04T19:49:21.863Z,54.20
2022-12-04T19:51:50.317Z,54.03
2022-12-04T19:54:19.043Z,57.17
2022-12-04T19:56:51.105Z,48.17
2022-12-04T19:59:20.846Z,58.53
2022-12-04T20:01:49.514Z,56.20
2022-12-04T20:04:17.983Z,50.50
2022-12-04T20:06:49.775Z,57.27
2022-12-04T20:09:23.171Z,46.43
2022-12-04T20:11:52.004Z,56.33
2022-12-04T20:14:21.146Z,51.37
2022-12-04T20:16:49.956Z,50.57
2022-12-04T20:19:19.916Z,55.60
2022-12-04T20:21:56.121Z,54.43
2022-12-04T20:24:27.190Z,52.37
2022-12-04T20:26:55.519Z,55.10
2022-12-04T20:29:23.709Z,54.17
2022-12-04T20:31:52.359Z,49.17
2022-12-04T20:34:20.620Z,53.53
2022-12-04T20:36:50.572Z,54.70
2022-12-04T20:39:20.283Z,57.83
2022-12-04T20:41:49.089Z,51.17
2022-12-04T20:44:19.516Z,57.83
2022-12-04T20:46:48.641Z,57.97
2022-12-04T20:49:22.144Z,58.30
2022-12-04T20:51:52.845Z,58.77
2022-12-04T20:54:23.121Z,52.20
2022-12-04T20:56:53.421Z,49.90
2022-12-04T20:59:23.860Z,51.43
2022-12-04T21:01:53.103Z,53.10
2022-12-04T21:04:22.249Z,53.47
2022-12-04T21:06:52.203Z,62.77
2022-12-04T21:09:22.260Z,56.83
2022-12-04T21:11:52.161Z,49.90
2022-12-04T21:14:39.671Z,55.00
2022-12-04T21:17:11.702Z,52.63
2022-12-04T21:19:39.851Z,50.00
2022-12-04T21:22:09.587Z,52.23
2022-12-04T21:24:38.673Z,63.47
2022-12-04T21:27:09.288Z,55.27
2022-12-04T21:29:37.978Z,62.53
2022-12-04T21:32:07.498Z,55.27
2022-12-04T21:34:36.009Z,57.47
2022-12-04T21:37:04.506Z,55.07
2022-12-04T21:39:34.075Z,53.77
2022-12-04T21:42:20.261Z,66.50
2022-12-04T21:44:49.393Z,58.07
2022-12-04T21:47:18.398Z,52.97
2022-12-04T21:49:47.608Z,52.70
2022-12-04T21:52:17.197Z,53.73
2022-12-04T21:54:49.546Z,51.10
2022-12-04T21:57:18.327Z,66.13
2022-12-04T21:59:46.477Z,59.03
2022-12-04T22:02:16.239Z,52.73
2022-12-04T22:04:44.683Z,44.23
2022-12-04T22:07:13.263Z,53.20
2022-12-04T22:09:42.879Z,52.03
2022-12-04T22:12:41.151Z,50.33
2022-12-04T22:15:02.312Z,56.27
2022-12-04T22:17:30.767Z,51.77
2022-12-04T22:19:59.111Z,59.30
2022-12-04T22:22:27.889Z,62.77
2022-12-04T22:24:55.904Z,59.43
2022-12-04T22:27:25.941Z,61.30
2022-12-04T22:29:54.227Z,66.10
2022-12-04T22:32:22.803Z,58.37
2022-12-04T22:34:51.185Z,59.77
2022-12-04T22:37:19.499Z,59.70
2022-12-04T22:39:47.485Z,67.73
2022-12-04T22:42:15.799Z,62.33
2022-12-04T22:44:45.207Z,65.87
2022-12-04T22:47:13.544Z,55.37
2022-12-04T22:49:41.530Z,66.93
2022-12-04T22:52:09.795Z,60.57
2022-12-04T22:54:37.827Z,60.50
2022-12-04T22:57:06.263Z,53.40
2022-12-04T22:59:34.280Z,65.73
2022-12-04T23:02:03.911Z,58.33
2022-12-04T23:04:31.990Z,58.50
2022-12-04T23:07:00.397Z,55.50
2022-12-04T23:09:28.431Z,60.47
2022-12-04T23:11:57.331Z,59.13
2022-12-04T23:14:27.015Z,74.37
2022-12-04T23:16:55.916Z,52.70
2022-12-04T23:19:25.478Z,61.00
2022-12-04T23:21:57.216Z,65.57
2022-12-04T23:24:25.727Z,59.77
2022-12-04T23:26:54.434Z,58.07
2022-12-04T23:29:51.420Z,54.80
2022-12-04T23:32:11.051Z,66.20
2022-12-04T23:34:41.060Z,59.70
2022-12-04T23:37:09.605Z,55.47
2022-12-04T23:39:37.978Z,56.33
2022-12-04T23:42:06.481Z,57.93
2022-12-04T23:44:34.468Z,55.60
2022-12-04T23:47:02.885Z,50.90
2022-12-04T23:49:30.944Z,47.67
2022-12-04T23:52:00.593Z,63.50
2022-12-04T23:54:30.195Z,57.57
2022-12-04T23:56:58.460Z,57.37
2022-12-04T23:59:26.432Z,59.53
